Time;durP1;ratioP1;P1;durP2;ratioP2;P2;SDS_P1;SDS_P2;PMS_P1;PMS_P2;Temp;Humidity;BMP_temperature;BMP_pressure;BME280_temperature;BME280_humidity;BME280_pressure;Samples;Min_cycle;Max_cycle;Signal;HPM_P1;HPM_P2
2023/06/29 00:00:39;;;;;;;21.43;13.00;;;;;;;-145.18;100.00;46662.34;5092282;28;20030;-62
2023/06/29 00:03:04;;;;;;;20.77;12.70;;;;;;;-145.18;100.00;46664.31;5092570;28;20028;-62
2023/06/29 00:05:30;;;;;;;23.67;12.93;;;;;;;-145.18;100.00;46664.31;5089861;28;20164;-62
2023/06/29 00:07:58;;;;;;;23.00;12.80;;;;;;;-145.18;100.00;46672.13;5071781;28;20044;-62
2023/06/29 00:10:28;;;;;;;23.23;12.70;;;;;;;-145.18;100.00;46666.25;5071753;28;20060;-62
2023/06/29 00:12:54;;;;;;;22.17;12.67;;;;;;;-145.18;100.00;46670.16;5071025;28;20078;-62
2023/06/29 00:15:19;;;;;;;24.37;13.80;;;;;;;-145.18;100.00;46664.31;5063999;28;20040;-62
2023/06/29 00:17:47;;;;;;;26.77;13.33;;;;;;;-145.18;100.00;46660.41;5072231;28;20027;-62
2023/06/29 00:20:15;;;;;;;18.47;11.50;;;;;;;-145.18;100.00;46662.34;5081296;28;20392;-62
2023/06/29 00:22:47;;;;;;;24.77;13.00;;;;;;;-145.18;100.00;46664.31;5069485;28;20040;-62
2023/06/29 00:25:13;;;;;;;21.10;13.17;;;;;;;-145.18;100.00;46660.41;5091854;28;20077;-62
2023/06/29 00:27:39;;;;;;;19.87;12.83;;;;;;;-145.18;100.00;46660.41;5091310;28;20032;-62
2023/06/29 00:30:05;;;;;;;24.70;12.83;;;;;;;-145.18;100.00;46654.53;5080156;28;20030;-62
2023/06/29 00:32:31;;;;;;;21.10;12.70;;;;;;;-145.18;100.00;46660.41;5090945;28;20426;-62
2023/06/29 00:34:56;;;;;;;23.70;12.70;;;;;;;-145.18;100.00;46656.50;5087796;28;20063;-62
2023/06/29 00:37:21;;;;;;;27.53;14.17;;;;;;;-145.18;100.00;46660.41;5091663;28;20063;-62
2023/06/29 00:39:47;;;;;;;20.90;12.60;;;;;;;-145.18;100.00;46658.44;5079251;28;20043;-62
2023/06/29 00:42:12;;;;;;;23.70;13.20;;;;;;;-145.18;100.00;46660.41;5071371;28;20107;-62
2023/06/29 00:44:37;;;;;;;26.20;13.63;;;;;;;-145.18;100.00;46658.44;5084308;28;20086;-62
2023/06/29 00:47:03;;;;;;;25.40;13.47;;;;;;;-145.18;100.00;46656.50;5073894;28;20044;-62
2023/06/29 00:49:29;;;;;;;22.77;13.27;;;;;;;-145.18;100.00;46664.31;5071969;28;20027;-62
2023/06/29 00:51:55;;;;;;;23.90;12.83;;;;;;;-145.18;100.00;46662.34;5071486;28;20488;-62
2023/06/29 00:54:21;;;;;;;27.47;14.43;;;;;;;-145.18;100.00;46662.34;5072403;28;20036;-62
2023/06/29 00:56:46;;;;;;;21.27;13.63;;;;;;;-145.18;100.00;46664.31;5071875;28;20056;-62
2023/06/29 00:59:13;;;;;;;23.93;13.33;;;;;;;-145.18;100.00;46664.31;5071483;28;20056;-62
2023/06/29 01:01:39;;;;;;;21.60;11.90;;;;;;;-145.18;100.00;46664.31;5053829;28;20039;-62
2023/06/29 01:04:09;;;;;;;22.63;13.47;;;;;;;-145.18;100.00;46654.53;5072383;28;20032;-62
2023/06/29 01:06:44;;;;;;;24.33;14.13;;;;;;;-145.18;100.00;46660.41;5053442;28;20040;-62
2023/06/29 01:09:11;;;;;;;23.33;13.27;;;;;;;-145.18;100.00;46660.41;5058627;28;20029;-62
2023/06/29 01:11:38;;;;;;;23.40;13.50;;;;;;;-145.18;100.00;46656.50;5071601;28;20043;-62
2023/06/29 01:14:06;;;;;;;23.90;13.37;;;;;;;-145.18;100.00;46656.50;5071637;28;20028;-62
2023/06/29 01:16:35;;;;;;;23.47;13.77;;;;;;;-145.18;100.00;46660.41;5071956;28;20036;-62
2023/06/29 01:19:04;;;;;;;21.53;12.53;;;;;;;-145.18;100.00;46656.50;5072048;28;20024;-62
2023/06/29 01:21:30;;;;;;;23.13;13.90;;;;;;;-145.18;100.00;46648.69;5072500;28;20029;-62
2023/06/29 01:23:58;;;;;;;23.93;12.80;;;;;;;-145.18;100.00;46654.53;5071654;28;20040;-62
2023/06/29 01:26:24;;;;;;;24.83;13.47;;;;;;;-145.18;100.00;46662.34;5071522;28;20098;-62
2023/06/29 01:28:52;;;;;;;25.80;13.37;;;;;;;-145.18;100.00;46652.59;5071369;28;20040;-62
2023/06/29 01:31:18;;;;;;;23.73;13.20;;;;;;;-145.18;100.00;46654.53;5071347;28;20028;-62
2023/06/29 01:33:45;;;;;;;28.93;14.07;;;;;;;-145.18;100.00;46654.53;5053329;28;20480;-62
2023/06/29 01:36:24;;;;;;;28.30;13.83;;;;;;;-145.18;100.00;46652.59;5071020;28;20056;-62
2023/06/29 01:39:00;;;;;;;23.37;11.87;;;;;;;-145.18;100.00;46646.72;5071371;28;20052;-60
2023/06/29 01:41:28;;;;;;;23.37;13.50;;;;;;;-145.18;100.00;46660.41;5071471;28;20439;-59
2023/06/29 01:43:54;;;;;;;24.20;13.63;;;;;;;-145.18;100.00;46658.44;5071338;28;20036;-59
2023/06/29 01:46:21;;;;;;;25.23;13.33;;;;;;;-145.18;100.00;46656.50;5054493;28;20056;-59
2023/06/29 01:48:47;;;;;;;23.90;13.40;;;;;;;-145.18;100.00;46654.53;5071456;28;20547;-59
2023/06/29 01:51:12;;;;;;;23.43;12.83;;;;;;;-145.18;100.00;46648.69;5071745;28;20571;-59
2023/06/29 01:53:37;;;;;;;22.63;12.77;;;;;;;-145.18;100.00;46650.63;5072086;28;20086;-60
2023/06/29 01:56:04;;;;;;;25.03;14.60;;;;;;;-145.18;100.00;46654.53;5062188;28;20071;-60
2023/06/29 01:58:29;;;;;;;26.03;13.07;;;;;;;-145.18;100.00;46650.63;5064325;28;20033;-60
2023/06/29 02:00:55;;;;;;;21.47;12.77;;;;;;;-145.18;100.00;46652.59;5075005;28;20035;-60
2023/06/29 02:03:20;;;;;;;24.47;13.83;;;;;;;-145.18;100.00;46650.63;5087397;28;20445;-60
2023/06/29 02:05:46;;;;;;;25.07;13.90;;;;;;;-145.18;100.00;46656.50;5075539;28;20028;-60
2023/06/29 02:08:11;;;;;;;23.17;14.13;;;;;;;-145.18;100.00;46656.50;5074782;28;20090;-60
2023/06/29 02:10:36;;;;;;;21.83;13.07;;;;;;;-145.18;100.00;46654.53;5074456;28;20025;-59
2023/06/29 02:13:02;;;;;;;23.43;12.60;;;;;;;-145.18;100.00;46656.50;5086358;28;20063;-60
2023/06/29 02:15:27;;;;;;;27.17;13.83;;;;;;;-145.18;100.00;46656.50;5094107;28;20036;-60
2023/06/29 02:17:53;;;;;;;23.20;13.83;;;;;;;-145.18;100.00;46654.53;5094459;28;20107;-60
2023/06/29 02:20:18;;;;;;;25.00;13.87;;;;;;;-145.18;100.00;46656.50;5076703;28;20465;-59
2023/06/29 02:22:44;;;;;;;24.97;13.80;;;;;;;-145.18;100.00;46652.59;5086063;28;20097;-60
2023/06/29 02:25:11;;;;;;;25.97;12.93;;;;;;;-145.18;100.00;46654.53;5075935;28;20444;-60
2023/06/29 02:27:36;;;;;;;22.43;12.97;;;;;;;-145.18;100.00;46656.50;5076318;28;20034;-59
2023/06/29 02:30:03;;;;;;;23.30;13.17;;;;;;;-145.18;100.00;46654.53;5080573;28;20115;-59
2023/06/29 02:32:28;;;;;;;21.37;13.10;;;;;;;-145.18;100.00;46654.53;5085887;28;20394;-59
2023/06/29 02:34:53;;;;;;;24.03;13.40;;;;;;;-145.18;100.00;46654.53;5093257;28;20036;-60
2023/06/29 02:37:19;;;;;;;25.07;13.20;;;;;;;-145.18;100.00;46658.44;5087224;28;20032;-59
2023/06/29 02:39:44;;;;;;;25.00;13.27;;;;;;;-145.18;100.00;46660.41;5078330;28;20032;-59
2023/06/29 02:42:10;;;;;;;25.23;13.60;;;;;;;-145.18;100.00;46654.53;5089624;28;20115;-59
2023/06/29 02:44:35;;;;;;;28.77;13.27;;;;;;;-145.18;100.00;46652.59;5090151;28;20055;-60
2023/06/29 02:47:00;;;;;;;26.00;13.00;;;;;;;-145.18;100.00;46654.53;5073162;28;20105;-59
2023/06/29 02:49:26;;;;;;;22.87;12.87;;;;;;;-145.18;100.00;46652.59;5077952;28;20040;-62
2023/06/29 02:51:51;;;;;;;24.33;13.43;;;;;;;-145.18;100.00;46652.59;5093580;28;20032;-62
2023/06/29 02:54:16;;;;;;;22.97;13.43;;;;;;;-145.18;100.00;46650.63;5090240;28;20561;-62
2023/06/29 02:56:42;;;;;;;24.73;12.90;;;;;;;-145.18;100.00;46660.41;5073700;28;20032;-62
2023/06/29 02:59:07;;;;;;;27.17;12.73;;;;;;;-145.18;100.00;46652.59;5073742;28;20028;-62
2023/06/29 03:01:32;;;;;;;22.37;12.77;;;;;;;-145.18;100.00;46658.44;5073921;28;20028;-62
2023/06/29 03:03:58;;;;;;;24.53;13.13;;;;;;;-145.18;100.00;46646.72;5077789;28;20399;-62
2023/06/29 03:06:23;;;;;;;25.67;14.23;;;;;;;-145.18;100.00;46650.63;5085179;28;20040;-62
2023/06/29 03:08:49;;;;;;;26.67;13.50;;;;;;;-145.18;100.00;46652.59;5074112;28;20102;-62
2023/06/29 03:11:14;;;;;;;25.07;14.40;;;;;;;-145.18;100.00;46658.44;5084181;28;20134;-62
2023/06/29 03:13:39;;;;;;;22.23;14.07;;;;;;;-145.18;100.00;46650.63;5074283;28;20399;-62
2023/06/29 03:16:05;;;;;;;23.07;13.70;;;;;;;-145.18;100.00;46652.59;5092853;28;20112;-61
2023/06/29 03:18:30;;;;;;;24.70;14.30;;;;;;;-145.18;100.00;46652.59;5092473;28;20028;-62
2023/06/29 03:20:56;;;;;;;25.63;14.47;;;;;;;-145.18;100.00;46660.41;5073838;28;20119;-62
2023/06/29 03:23:22;;;;;;;30.47;15.13;;;;;;;-145.18;100.00;46654.53;5072898;28;20039;-62
2023/06/29 03:25:48;;;;;;;27.33;14.03;;;;;;;-145.18;100.00;46658.44;5073543;28;20036;-62
2023/06/29 03:28:13;;;;;;;29.33;13.60;;;;;;;-145.18;100.00;46654.53;5073685;28;20071;-62
2023/06/29 03:30:39;;;;;;;31.20;14.73;;;;;;;-145.18;100.00;46648.69;5073342;28;20036;-62
2023/06/29 03:33:04;;;;;;;27.33;14.50;;;;;;;-145.18;100.00;46654.53;5055549;28;20032;-62
2023/06/29 03:35:29;;;;;;;28.83;13.90;;;;;;;-145.18;100.00;46660.41;5073339;28;20059;-62
2023/06/29 03:37:55;;;;;;;23.40;14.13;;;;;;;-145.18;100.00;46658.44;5076541;28;20041;-62
2023/06/29 03:40:20;;;;;;;23.90;14.03;;;;;;;-145.18;100.00;46656.50;5072977;28;20547;-62
2023/06/29 03:42:45;;;;;;;26.63;14.20;;;;;;;-145.18;100.00;46652.59;5085988;28;20036;-62
2023/06/29 03:45:11;;;;;;;25.80;14.07;;;;;;;-145.18;100.00;46648.69;5074408;28;20651;-62
2023/06/29 03:47:36;;;;;;;27.67;14.77;;;;;;;-145.18;100.00;46652.59;5056603;28;20141;-62
2023/06/29 03:50:02;;;;;;;28.47;13.93;;;;;;;-145.18;100.00;46654.53;5055761;28;20042;-61
2023/06/29 03:52:27;;;;;;;24.57;13.17;;;;;;;-145.18;100.00;46652.59;5073325;28;20032;-62
2023/06/29 03:54:53;;;;;;;25.10;14.07;;;;;;;-145.18;100.00;46644.78;5065903;28;20054;-62
2023/06/29 03:57:18;;;;;;;26.03;15.33;;;;;;;-145.18;100.00;46658.44;5051331;28;20031;-62
2023/06/29 03:59:43;;;;;;;32.97;14.87;;;;;;;-145.18;100.00;46652.59;5074391;28;20399;-62
2023/06/29 04:02:09;;;;;;;26.33;15.30;;;;;;;-145.18;100.00;46656.50;5078184;28;20032;-62
2023/06/29 04:04:35;;;;;;;29.70;15.77;;;;;;;-145.18;100.00;46654.53;5058627;28;20454;-62
2023/06/29 04:07:00;;;;;;;27.33;15.13;;;;;;;-145.18;100.00;46654.53;5060770;28;20032;-62
2023/06/29 04:09:26;;;;;;;27.93;14.97;;;;;;;-145.18;100.00;46656.50;5081705;28;20486;-62
2023/06/29 04:11:51;;;;;;;28.67;15.87;;;;;;;-145.18;100.00;46652.59;5073754;28;20036;-62
2023/06/29 04:14:17;;;;;;;26.33;14.27;;;;;;;-145.18;100.00;46654.53;5071819;28;20032;-62
2023/06/29 04:16:42;;;;;;;28.13;16.07;;;;;;;-145.18;100.00;46650.63;5071540;28;20031;-62
2023/06/29 04:19:07;;;;;;;29.00;15.70;;;;;;;-145.18;100.00;46650.63;5072430;28;20040;-62
2023/06/29 04:21:33;;;;;;;28.73;15.53;;;;;;;-145.18;100.00;46652.59;5073338;28;20487;-62
2023/06/29 04:23:58;;;;;;;27.70;15.73;;;;;;;-145.18;100.00;46646.72;5071794;28;20032;-62
2023/06/29 04:26:27;;;;;;;30.77;15.67;;;;;;;-145.18;100.00;46650.63;5070952;28;20119;-62
2023/06/29 04:28:59;;;;;;;33.17;15.87;;;;;;;-145.18;100.00;46656.50;5080839;28;20475;-62
2023/06/29 04:31:26;;;;;;;29.43;16.43;;;;;;;-145.18;100.00;46650.63;5057174;28;20110;-62
2023/06/29 04:33:52;;;;;;;31.00;14.37;;;;;;;-145.18;100.00;46656.50;5059724;28;20044;-62
2023/06/29 04:36:17;;;;;;;30.20;15.87;;;;;;;-145.18;100.00;46654.53;5061525;28;20135;-62
2023/06/29 04:38:42;;;;;;;30.70;16.30;;;;;;;-145.18;100.00;46654.53;5059757;28;20686;-62
2023/06/29 04:41:09;;;;;;;29.53;16.77;;;;;;;-145.18;100.00;46658.44;5075054;28;20116;-62
2023/06/29 04:43:36;;;;;;;28.93;15.97;;;;;;;-145.18;100.00;46660.41;5072859;28;20036;-62
2023/06/29 04:46:03;;;;;;;27.23;15.57;;;;;;;-145.18;100.00;46660.41;5069591;28;20495;-62
2023/06/29 04:48:32;;;;;;;30.87;16.80;;;;;;;-145.18;100.00;46650.63;5075669;28;20090;-62
2023/06/29 04:51:05;;;;;;;33.13;16.50;;;;;;;-145.18;100.00;46658.44;5079960;28;20028;-62
2023/06/29 04:53:34;;;;;;;29.10;15.97;;;;;;;-145.18;100.00;46660.41;5079068;28;20032;-62
2023/06/29 04:55:59;;;;;;;31.43;15.80;;;;;;;-145.18;100.00;46652.59;5078425;28;20023;-62
2023/06/29 04:58:25;;;;;;;35.00;17.50;;;;;;;-145.18;100.00;46658.44;5079837;28;20028;-62
2023/06/29 05:00:51;;;;;;;30.63;16.37;;;;;;;-145.18;100.00;46656.50;5078154;28;20040;-62
2023/06/29 05:03:16;;;;;;;34.70;17.63;;;;;;;-145.18;100.00;46660.41;5062015;28;20093;-62
2023/06/29 05:05:41;;;;;;;31.33;16.67;;;;;;;-145.18;100.00;46666.25;5078266;28;20073;-62
2023/06/29 05:08:07;;;;;;;32.27;16.73;;;;;;;-145.18;100.00;46662.34;5079411;28;20040;-62
2023/06/29 05:10:33;;;;;;;29.23;15.90;;;;;;;-145.18;100.00;46660.41;5077727;28;20396;-60
2023/06/29 05:12:58;;;;;;;32.63;17.57;;;;;;;-145.18;100.00;46670.16;5079971;28;20024;-60
2023/06/29 05:15:23;;;;;;;28.27;16.97;;;;;;;-145.18;100.00;46670.16;5078545;28;20036;-60
2023/06/29 05:17:49;;;;;;;28.50;16.30;;;;;;;-145.18;100.00;46668.22;5080019;28;20055;-60
2023/06/29 05:20:17;;;;;;;31.83;16.10;;;;;;;-145.18;100.00;46660.41;5074284;28;20028;-60
2023/06/29 05:22:42;;;;;;;28.00;16.10;;;;;;;-145.18;100.00;46672.13;5078868;28;20037;-60
2023/06/29 05:25:08;;;;;;;36.00;17.23;;;;;;;-145.18;100.00;46676.03;5088660;28;20040;-60
2023/06/29 05:27:33;;;;;;;31.73;17.20;;;;;;;-145.18;100.00;46666.25;5080438;28;20650;-60
2023/06/29 05:29:58;;;;;;;31.00;16.90;;;;;;;-145.18;100.00;46664.31;5075169;28;20078;-60
2023/06/29 05:32:24;;;;;;;34.07;16.67;;;;;;;-145.18;100.00;46662.34;5075435;28;20041;-59
2023/06/29 05:34:49;;;;;;;31.60;17.33;;;;;;;-145.18;100.00;46668.22;5076014;28;20540;-60
2023/06/29 05:37:14;;;;;;;34.40;17.33;;;;;;;-145.18;100.00;46668.22;5062059;28;20032;-60
2023/06/29 05:39:40;;;;;;;34.40;17.27;;;;;;;-145.18;100.00;46668.22;5083349;28;20035;-60
2023/06/29 05:42:06;;;;;;;32.53;17.80;;;;;;;-145.18;100.00;46668.22;5064592;28;20545;-60
2023/06/29 05:44:31;;;;;;;35.10;17.80;;;;;;;-145.18;100.00;46668.22;5088237;28;20036;-60
2023/06/29 05:46:56;;;;;;;31.60;17.23;;;;;;;-145.18;100.00;46672.13;5085307;28;20426;-59
2023/06/29 05:49:22;;;;;;;31.90;16.33;;;;;;;-145.18;100.00;46668.22;5083695;28;20063;-60
2023/06/29 05:51:47;;;;;;;33.13;18.30;;;;;;;-145.18;100.00;46668.22;5066261;28;20035;-59
2023/06/29 05:54:13;;;;;;;30.00;17.03;;;;;;;-145.18;100.00;46666.25;5082780;28;20742;-60
2023/06/29 05:56:38;;;;;;;32.83;17.33;;;;;;;-145.18;100.00;46670.16;5083988;28;20085;-60
2023/06/29 05:59:04;;;;;;;34.67;16.63;;;;;;;-145.18;100.00;46670.16;5082771;28;20524;-60
2023/06/29 06:01:29;;;;;;;31.30;16.63;;;;;;;-145.18;100.00;46670.16;5083536;28;20028;-60
2023/06/29 06:03:54;;;;;;;35.90;17.10;;;;;;;-145.18;100.00;46676.03;5070417;28;20409;-60
2023/06/29 06:06:20;;;;;;;29.03;16.27;;;;;;;-145.18;100.00;46677.97;5064086;28;20534;-60
2023/06/29 06:08:46;;;;;;;30.83;17.33;;;;;;;-145.18;100.00;46679.94;5066956;28;20040;-60
2023/06/29 06:11:11;;;;;;;30.90;17.50;;;;;;;-145.18;100.00;46674.06;5069575;28;20471;-59
2023/06/29 06:13:36;;;;;;;29.73;16.70;;;;;;;-145.18;100.00;46679.94;5069930;28;20047;-60
2023/06/29 06:16:04;;;;;;;30.63;16.33;;;;;;;-145.18;100.00;46668.22;5081694;28;20040;-60
2023/06/29 06:18:29;;;;;;;33.57;16.47;;;;;;;-145.18;100.00;46672.13;5068450;28;20033;-59
2023/06/29 06:20:55;;;;;;;30.40;17.07;;;;;;;-145.18;100.00;46687.75;5069538;28;20111;-60
2023/06/29 06:23:21;;;;;;;33.13;16.73;;;;;;;-145.18;100.00;46687.75;5065229;28;20028;-60
2023/06/29 06:25:46;;;;;;;32.97;16.47;;;;;;;-145.18;100.00;46683.84;5053683;28;20373;-60
2023/06/29 06:28:11;;;;;;;30.87;16.67;;;;;;;-145.18;100.00;46683.84;5068081;28;20044;-60
2023/06/29 06:30:37;;;;;;;29.40;16.57;;;;;;;-145.18;100.00;46676.03;5074084;28;20119;-59
2023/06/29 06:33:02;;;;;;;32.27;17.30;;;;;;;-145.18;100.00;46685.78;5076024;28;20031;-59
2023/06/29 06:35:31;;;;;;;27.57;16.13;;;;;;;-145.18;100.00;46681.88;5084808;28;20504;-59
2023/06/29 06:37:57;;;;;;;31.67;17.53;;;;;;;-145.18;100.00;46679.94;5080786;28;20029;-60
2023/06/29 06:40:22;;;;;;;31.70;17.50;;;;;;;-145.18;100.00;46677.97;5075921;28;20484;-60
2023/06/29 06:42:48;;;;;;;28.47;15.63;;;;;;;-145.18;100.00;46679.94;5072466;28;20078;-60
2023/06/29 06:45:16;;;;;;;34.03;16.90;;;;;;;-145.18;100.00;46677.97;5079469;28;20028;-60
2023/06/29 06:47:41;;;;;;;30.97;17.23;;;;;;;-145.18;100.00;46677.97;5076915;28;20033;-59
2023/06/29 06:50:07;;;;;;;29.73;15.80;;;;;;;-145.18;100.00;46679.94;5057763;28;20040;-59
2023/06/29 06:52:33;;;;;;;32.27;15.60;;;;;;;-145.18;100.00;46681.88;5076055;28;20377;-60
2023/06/29 06:54:59;;;;;;;31.07;15.37;;;;;;;-145.18;100.00;46677.97;5078625;28;20037;-60
2023/06/29 06:57:24;;;;;;;30.40;16.43;;;;;;;-145.18;100.00;46685.78;5080286;28;20027;-60
2023/06/29 06:59:49;;;;;;;32.90;15.77;;;;;;;-145.18;100.00;46683.84;5075584;28;20039;-59
2023/06/29 07:02:15;;;;;;;26.37;14.50;;;;;;;-145.18;100.00;46681.88;5077002;28;20032;-60
2023/06/29 07:04:40;;;;;;;29.10;15.57;;;;;;;-145.18;100.00;46683.84;5077260;28;20095;-59
2023/06/29 07:07:07;;;;;;;27.40;15.40;;;;;;;-145.18;100.00;46677.97;5074880;28;20033;-60
2023/06/29 07:09:32;;;;;;;36.33;15.93;;;;;;;-145.18;100.00;46681.88;5073852;28;20024;-60
2023/06/29 07:11:58;;;;;;;28.33;14.80;;;;;;;-145.18;100.00;46679.94;5073225;28;20032;-59
2023/06/29 07:14:24;;;;;;;30.60;16.23;;;;;;;-145.18;100.00;46677.97;5061121;28;20408;-60
2023/06/29 07:16:49;;;;;;;30.90;16.97;;;;;;;-145.18;100.00;46681.88;5072590;28;20056;-60
2023/06/29 07:19:15;;;;;;;28.90;15.10;;;;;;;-145.18;100.00;46685.78;5077956;28;20079;-60
2023/06/29 07:21:41;;;;;;;31.13;15.57;;;;;;;-145.18;100.00;46681.88;5075374;28;20036;-59
2023/06/29 07:24:08;;;;;;;29.83;16.30;;;;;;;-145.18;100.00;46683.84;5079696;28;20120;-59
2023/06/29 07:26:33;;;;;;;30.13;15.70;;;;;;;-145.18;100.00;46685.78;5056255;28;20059;-60
2023/06/29 07:28:59;;;;;;;29.57;16.37;;;;;;;-145.18;100.00;46683.84;5077659;28;20391;-60
2023/06/29 07:31:26;;;;;;;27.10;16.13;;;;;;;-145.18;100.00;46683.84;5082887;28;20033;-60
2023/06/29 07:33:55;;;;;;;32.90;16.67;;;;;;;-145.18;100.00;46687.75;5086087;28;20043;-60
2023/06/29 07:36:26;;;;;;;28.93;15.80;;;;;;;-145.18;100.00;46687.75;5075893;28;20038;-60
2023/06/29 07:38:52;;;;;;;25.00;15.23;;;;;;;-145.18;100.00;46687.75;5074093;28;20043;-60
2023/06/29 07:41:18;;;;;;;29.77;16.60;;;;;;;-145.18;100.00;46685.78;5073906;28;20408;-60
2023/06/29 07:43:50;;;;;;;27.17;15.83;;;;;;;-145.18;100.00;46681.88;5076833;28;20077;-60
2023/06/29 07:46:15;;;;;;;29.77;16.83;;;;;;;-145.18;100.00;46679.94;5080610;28;20048;-60
2023/06/29 07:48:42;;;;;;;31.83;16.57;;;;;;;-145.18;100.00;46662.34;5080868;28;20594;-60
2023/06/29 07:51:08;;;;;;;32.50;16.30;;;;;;;-145.18;100.00;46654.53;5070592;28;20036;-59
2023/06/29 07:53:33;;;;;;;34.40;16.13;;;;;;;-145.18;100.00;46658.44;5081433;28;20043;-60
2023/06/29 07:55:59;;;;;;;27.43;15.60;;;;;;;-145.18;100.00;46660.41;5081683;28;20040;-60
2023/06/29 07:58:26;;;;;;;39.97;15.70;;;;;;;-145.18;100.00;46672.13;5086022;28;20412;-60
2023/06/29 08:00:51;;;;;;;31.93;15.20;;;;;;;-145.18;100.00;46683.84;5085103;28;20120;-60
2023/06/29 08:03:16;;;;;;;26.33;15.60;;;;;;;-145.18;100.00;46677.97;5054072;28;20107;-60
2023/06/29 08:05:42;;;;;;;24.63;15.10;;;;;;;-145.18;100.00;46676.03;5065965;28;20028;-60
2023/06/29 08:08:07;;;;;;;30.77;15.33;;;;;;;-145.18;100.00;46652.59;5070751;28;20114;-60
2023/06/29 08:10:32;;;;;;;24.30;13.47;;;;;;;-145.18;100.00;46652.59;5075133;28;20081;-60
2023/06/29 08:12:59;;;;;;;35.87;16.93;;;;;;;-145.18;100.00;46654.53;5077953;28;20040;-60
2023/06/29 08:15:24;;;;;;;31.83;16.27;;;;;;;-145.18;100.00;46635.00;5096657;28;20107;-60
2023/06/29 08:17:50;;;;;;;28.40;15.97;;;;;;;-145.18;100.00;46586.16;5053859;28;20051;-60
2023/06/29 08:20:15;;;;;;;34.47;15.93;;;;;;;-145.18;100.00;46556.88;5074874;28;20067;-60
2023/06/29 08:22:45;;;;;;;24.23;14.33;;;;;;;-145.18;100.00;46556.88;5071541;28;20040;-60
2023/06/29 08:25:10;;;;;;;28.03;15.10;;;;;;;-145.18;100.00;46552.97;5079423;28;20076;-60
2023/06/29 08:27:36;;;;;;;30.33;14.70;;;;;;;-145.18;100.00;46556.88;5081491;28;20032;-60
2023/06/29 08:30:02;;;;;;;28.63;15.63;;;;;;;-145.18;100.00;46552.97;5076398;28;20034;-60
2023/06/29 08:32:28;;;;;;;27.13;13.20;;;;;;;-145.18;100.00;46556.88;5086065;28;20075;-60
2023/06/29 08:34:53;;;;;;;26.20;12.87;;;;;;;-145.18;100.00;46554.91;5090931;28;20571;-59
2023/06/29 08:37:20;;;;;;;28.97;13.07;;;;;;;-145.18;100.00;46554.91;5049096;28;20016;-60
2023/06/29 08:39:45;;;;;;;26.93;14.53;;;;;;;-145.18;100.00;46562.72;5082560;28;20042;-60
2023/06/29 08:42:10;;;;;;;28.67;14.60;;;;;;;-145.18;100.00;46574.44;5088102;28;20027;-60
2023/06/29 08:44:36;;;;;;;28.77;15.00;;;;;;;-145.18;100.00;46588.13;5072917;28;20048;-60
2023/06/29 08:47:02;;;;;;;23.33;13.90;;;;;;;-145.18;100.00;46574.44;5062277;28;20108;-60
2023/06/29 08:49:27;;;;;;;24.13;12.67;;;;;;;-145.18;100.00;46566.63;5055330;28;20058;-60
2023/06/29 08:51:58;;;;;;;23.57;13.17;;;;;;;-145.18;100.00;46574.44;5085144;28;20039;-60
2023/06/29 08:54:26;;;;;;;26.07;15.77;;;;;;;-145.18;100.00;46562.72;5072368;28;20488;-60
2023/06/29 08:56:51;;;;;;;28.63;14.13;;;;;;;-145.18;100.00;46558.81;5074755;28;20044;-60
2023/06/29 08:59:18;;;;;;;27.23;15.10;;;;;;;-145.18;100.00;46560.78;5071820;28;20033;-60
2023/06/29 09:01:45;;;;;;;23.70;14.63;;;;;;;-145.18;100.00;46562.72;5086795;28;20040;-60
2023/06/29 09:04:11;;;;;;;24.97;14.77;;;;;;;-145.18;100.00;46564.69;5078787;28;20479;-60
2023/06/29 09:06:37;;;;;;;25.13;14.33;;;;;;;-145.18;100.00;46556.88;5077034;28;20024;-60
2023/06/29 09:09:03;;;;;;;26.27;14.57;;;;;;;-145.18;100.00;46566.63;5100643;28;20020;-61
2023/06/29 09:11:33;;;;;;;30.93;15.67;;;;;;;-145.18;100.00;46568.59;5072841;28;20032;-60
2023/06/29 09:14:04;;;;;;;25.23;14.90;;;;;;;-145.18;100.00;46590.06;5076341;28;20028;-60
2023/06/29 09:16:29;;;;;;;27.67;14.47;;;;;;;-145.18;100.00;46593.97;5085679;28;20503;-60
2023/06/29 09:18:56;;;;;;;29.20;14.60;;;;;;;-145.18;100.00;46590.06;5083443;28;20093;-60
2023/06/29 09:21:23;;;;;;;28.27;14.77;;;;;;;-145.18;100.00;46574.44;5070557;28;20024;-60
2023/06/29 09:23:49;;;;;;;26.97;14.37;;;;;;;-145.18;100.00;46560.78;5088543;28;20032;-60
2023/06/29 09:26:17;;;;;;;26.77;13.60;;;;;;;-145.18;100.00;46554.91;5074815;28;20048;-60
2023/06/29 09:28:46;;;;;;;24.47;14.03;;;;;;;-145.18;100.00;46547.09;5074623;28;20064;-60
2023/06/29 09:31:12;;;;;;;25.37;12.97;;;;;;;-145.18;100.00;46549.06;5075093;28;20033;-60
2023/06/29 09:33:38;;;;;;;22.40;13.77;;;;;;;-145.18;100.00;46554.91;5074609;28;20041;-60
2023/06/29 09:36:07;;;;;;;24.40;13.23;;;;;;;-145.18;100.00;46556.88;5091727;28;20055;-60
2023/06/29 09:38:32;;;;;;;26.80;14.10;;;;;;;-145.18;100.00;46558.81;5077022;28;20020;-60
2023/06/29 09:40:59;;;;;;;23.63;13.90;;;;;;;-145.18;100.00;46558.81;5089921;28;20036;-60
2023/06/29 09:43:29;;;;;;;23.93;13.77;;;;;;;-145.18;100.00;46558.81;5068677;28;20056;-60
2023/06/29 09:46:08;;;;;;;22.57;13.63;;;;;;;-145.18;100.00;46558.81;5077193;28;20029;-60
2023/06/29 09:48:42;;;;;;;24.20;14.25;;;;;;;-145.18;100.00;46560.78;5066829;28;20028;-60
2023/06/29 09:51:07;;;;;;;24.92;13.50;;;;;;;-145.18;100.00;46552.97;5081518;28;20119;-61
2023/06/29 09:53:33;;;;;;;24.15;14.35;;;;;;;-145.18;100.00;46554.91;5083366;28;20110;-61
2023/06/29 09:56:00;;;;;;;23.92;13.73;;;;;;;-145.18;100.00;46554.91;5081144;28;20432;-60
2023/06/29 09:58:30;;;;;;;22.70;13.52;;;;;;;-145.18;100.00;46545.16;5077733;28;20478;-61
2023/06/29 10:00:59;;;;;;;24.17;14.20;;;;;;;-145.18;100.00;46545.16;5080689;28;20036;-61
2023/06/29 10:03:26;;;;;;;24.55;14.40;;;;;;;-145.18;100.00;46549.06;5085223;28;20029;-61
2023/06/29 10:05:56;;;;;;;23.38;14.20;;;;;;;-145.18;100.00;46527.56;5076430;28;20117;-61
2023/06/29 10:08:24;;;;;;;31.17;16.02;;;;;;;-145.18;100.00;46515.84;5076990;28;20028;-61
2023/06/29 10:10:59;;;;;;;29.83;14.63;;;;;;;-145.18;100.00;46517.81;5058575;28;20126;-61
2023/06/29 10:13:24;;;;;;;23.43;14.03;;;;;;;-145.18;100.00;46527.56;5075466;28;20031;-61
2023/06/29 10:15:52;;;;;;;25.65;14.02;;;;;;;-145.18;100.00;46525.63;5072804;28;20029;-60
2023/06/29 10:18:27;;;;;;;20.08;12.75;;;;;;;-145.18;100.00;46525.63;5076192;28;20032;-61
2023/06/29 10:20:52;;;;;;;25.85;14.20;;;;;;;-145.18;100.00;46539.28;5069417;28;20020;-61
2023/06/29 10:23:19;;;;;;;24.00;14.07;;;;;;;-145.18;100.00;46543.19;5073686;28;20043;-61
2023/06/29 10:25:48;;;;;;;23.23;13.77;;;;;;;-145.18;100.00;46521.72;5073119;28;20043;-61
2023/06/29 10:28:14;;;;;;;24.52;14.55;;;;;;;-145.18;100.00;46523.66;5074142;28;20024;-61
2023/06/29 10:30:47;;;;;;;25.35;14.30;;;;;;;-145.18;100.00;46537.34;5074048;28;20082;-61
2023/06/29 10:33:20;;;;;;;25.38;14.00;;;;;;;-145.18;100.00;46549.06;5073781;28;20024;-61
2023/06/29 10:36:12;;;;;;;22.40;13.98;;;;;;;-145.18;100.00;46531.47;5074289;28;20137;-61
2023/06/29 10:38:37;;;;;;;23.70;14.00;;;;;;;-145.18;100.00;46558.81;5071735;28;20407;-61
2023/06/29 10:41:06;;;;;;;24.73;13.57;;;;;;;-145.18;100.00;46593.97;5056113;28;20025;-61
2023/06/29 10:43:59;;;;;;;26.77;14.48;;;;;;;-145.18;100.00;46707.28;5055676;28;20523;-61
2023/06/29 10:46:44;;;;;;;26.27;14.07;;;;;;;-145.18;100.00;46992.47;5074792;28;20039;-61
2023/06/29 10:49:26;;;;;;;21.37;13.10;;;;;;;-145.18;100.00;46763.91;5073765;28;20476;-61
2023/06/29 10:51:54;;;;;;;24.33;13.85;;;;;;;-145.18;100.00;47043.28;5089475;28;20028;-61